Gorum, Louisiana
Current Conditions -  °F | °C
As of 2:56 AM on Wednesday 22 Oct 2014 (Local Time) from KAQV Reporting Station
Haze Haze  
Wind Chill: 60°   Ceiling: Unl
Heat Index: 60°   Visibility: 4mi
Dew Point: 57°   Wind: 0mph
Humidity: 90%   Direction: NA
Pressure: 30.05"   Gusts: NA
Location:  31.43°N, 92.94°W
Report Text: KAQV 220756Z AUTO 00000KT 4SM BR CLR 16/14 A3005 RMK AO2 SLP174 T01560139
Loading
Personal Weather Stations






























Interactive Weather Map
Tropical Storm Tracking
New forecast layout! Learn more

10-Day Weather Forecast

Advertisements
Track Severe Weather on mobile